Pagrindinis puslapis
METAR-TAF:

METAR-TAF

Oro uostai :

Gibraltaras, Gibraltaras

platuma: 36-09N, ilguma: 005-21W, Aukštis: 5 m

Dabartinis oras

Ataskaita buvo paskelbta 1 valandą ir 2 minutes, ne 16:50 UTC
Vėjas 8 kt iš Pietų/Pietvakarių
Temperatūra 20°C
Drėgmė 73%
Slėgis 1016 hPa
Matomumas 10 km arba daugiau

METAR: LXGB 221650Z AUTO 20008KT 9999 // BKN090/// 20/15 Q1016

Laikas: 19:52 (17:52 UTC)

Prognozė

Ataskaita buvo paskelbta 4 valandos ir 4 minutes, ne 13:48 UTC
Prognozė galioja nuo 22 metu 15 UTC su 22 metu 23 UTC
Vėjas 8 kt iš Pietų/Pietvakarių
Matomumas 10 km arba daugiau
Mažai debesys ne aukštis 1200 ft
Su prošvaistėmis ne aukštis 4000 ft
Tikimybė 40% :
Laikinai
nuo 22 metu 15 UTC su 22 metu 23 UTC
Matomumas: 6000 m
Išsisklaidę debesys ne aukštis 1200 ft, aukštai iškilę kamuoliniai debesys.
lietus

TAF: LXGB 221348Z 2215/2223 20008KT 9999 FEW012 BKN040 PROB40 TEMPO 2215/2223 6000 -SHRA SCT012TCU

Orai ataskaitas ir orų prognozės (METAR, TAF).

turimą stotys yra geltonos ir raudonos taškus žemėlapyje.

Perkelti pele per norėdami pamatyti stoties vardą.

Tada spustelėkite, norėdami matyti oro stebėjimo ir prognozės.

Norėdami pakeisti žemėlapį: spustelėkite ant žalios mygtukų su juodo kryžiaus žemyn,; žalią mygtuką su brūkšneliu, jei norite nutolinti; arba žalių rodyklių gretimoms žemėlapius.


METAR-TAF: